sensor_id;sensor_type;location;lat;lon;timestamp;P1;durP1;ratioP1;P2;durP2;ratioP2
10116;SDS011;5098;48.792;9.012;2022-12-20T00:01:43;8.50;;;6.40;;
10116;SDS011;5098;48.792;9.012;2022-12-20T00:04:09;6.38;;;5.05;;
10116;SDS011;5098;48.792;9.012;2022-12-20T00:06:36;6.90;;;6.13;;
10116;SDS011;5098;48.792;9.012;2022-12-20T00:09:05;6.85;;;6.10;;
10116;SDS011;5098;48.792;9.012;2022-12-20T00:11:31;6.18;;;5.55;;
10116;SDS011;5098;48.792;9.012;2022-12-20T00:13:57;7.30;;;6.22;;
10116;SDS011;5098;48.792;9.012;2022-12-20T00:16:25;8.90;;;5.88;;
10116;SDS011;5098;48.792;9.012;2022-12-20T00:18:56;7.90;;;5.47;;
10116;SDS011;5098;48.792;9.012;2022-12-20T00:21:22;6.63;;;4.88;;
10116;SDS011;5098;48.792;9.012;2022-12-20T00:23:50;5.68;;;5.15;;
10116;SDS011;5098;48.792;9.012;2022-12-20T00:26:17;6.82;;;5.70;;
10116;SDS011;5098;48.792;9.012;2022-12-20T00:28:44;5.72;;;5.10;;
10116;SDS011;5098;48.792;9.012;2022-12-20T00:31:12;6.95;;;5.22;;
10116;SDS011;5098;48.792;9.012;2022-12-20T00:33:38;9.75;;;5.63;;
10116;SDS011;5098;48.792;9.012;2022-12-20T00:36:05;6.72;;;5.05;;
10116;SDS011;5098;48.792;9.012;2022-12-20T00:38:31;6.10;;;5.15;;
10116;SDS011;5098;48.792;9.012;2022-12-20T00:41:01;6.80;;;5.72;;
10116;SDS011;5098;48.792;9.012;2022-12-20T00:43:27;5.78;;;5.18;;
10116;SDS011;5098;48.792;9.012;2022-12-20T00:45:53;7.80;;;5.50;;
10116;SDS011;5098;48.792;9.012;2022-12-20T00:48:19;6.18;;;5.00;;
10116;SDS011;5098;48.792;9.012;2022-12-20T00:50:46;7.78;;;5.20;;
10116;SDS011;5098;48.792;9.012;2022-12-20T00:53:12;8.15;;;5.32;;
10116;SDS011;5098;48.792;9.012;2022-12-20T00:55:41;7.32;;;5.32;;
10116;SDS011;5098;48.792;9.012;2022-12-20T00:58:08;7.40;;;5.25;;
10116;SDS011;5098;48.792;9.012;2022-12-20T01:00:34;6.22;;;5.35;;
10116;SDS011;5098;48.792;9.012;2022-12-20T01:03:00;6.57;;;5.63;;
10116;SDS011;5098;48.792;9.012;2022-12-20T01:05:26;5.70;;;4.47;;
10116;SDS011;5098;48.792;9.012;2022-12-20T01:07:52;5.75;;;5.15;;
10116;SDS011;5098;48.792;9.012;2022-12-20T01:10:18;7.00;;;5.07;;
10116;SDS011;5098;48.792;9.012;2022-12-20T01:12:44;5.05;;;4.25;;
10116;SDS011;5098;48.792;9.012;2022-12-20T01:15:10;5.40;;;4.70;;
10116;SDS011;5098;48.792;9.012;2022-12-20T01:17:36;6.30;;;4.37;;
10116;SDS011;5098;48.792;9.012;2022-12-20T01:20:03;5.13;;;4.60;;
10116;SDS011;5098;48.792;9.012;2022-12-20T01:22:29;6.63;;;4.30;;
10116;SDS011;5098;48.792;9.012;2022-12-20T01:24:55;5.75;;;4.57;;
10116;SDS011;5098;48.792;9.012;2022-12-20T01:27:22;5.15;;;4.18;;
10116;SDS011;5098;48.792;9.012;2022-12-20T01:29:48;4.77;;;4.27;;
10116;SDS011;5098;48.792;9.012;2022-12-20T01:32:14;5.43;;;4.72;;
10116;SDS011;5098;48.792;9.012;2022-12-20T01:34:40;5.55;;;4.68;;
10116;SDS011;5098;48.792;9.012;2022-12-20T01:37:06;6.07;;;4.90;;
10116;SDS011;5098;48.792;9.012;2022-12-20T01:39:32;5.80;;;4.75;;
10116;SDS011;5098;48.792;9.012;2022-12-20T01:41:58;5.85;;;4.78;;
10116;SDS011;5098;48.792;9.012;2022-12-20T01:46:51;6.00;;;4.73;;
10116;SDS011;5098;48.792;9.012;2022-12-20T01:51:51;6.75;;;4.45;;
10116;SDS011;5098;48.792;9.012;2022-12-20T01:54:20;6.93;;;4.40;;
10116;SDS011;5098;48.792;9.012;2022-12-20T01:56:49;6.35;;;4.80;;
10116;SDS011;5098;48.792;9.012;2022-12-20T01:59:16;6.93;;;5.85;;
10116;SDS011;5098;48.792;9.012;2022-12-20T02:01:42;8.05;;;5.18;;
10116;SDS011;5098;48.792;9.012;2022-12-20T02:04:08;6.10;;;5.30;;
10116;SDS011;5098;48.792;9.012;2022-12-20T02:06:34;5.90;;;4.82;;
10116;SDS011;5098;48.792;9.012;2022-12-20T02:09:01;6.55;;;4.78;;
10116;SDS011;5098;48.792;9.012;2022-12-20T02:17:30;7.20;;;4.68;;
10116;SDS011;5098;48.792;9.012;2022-12-20T02:22:15;4.45;;;3.85;;
10116;SDS011;5098;48.792;9.012;2022-12-20T02:30:01;6.07;;;4.65;;
10116;SDS011;5098;48.792;9.012;2022-12-20T02:32:46;6.05;;;4.72;;
10116;SDS011;5098;48.792;9.012;2022-12-20T02:35:14;5.68;;;4.60;;
10116;SDS011;5098;48.792;9.012;2022-12-20T02:37:47;5.10;;;4.60;;
10116;SDS011;5098;48.792;9.012;2022-12-20T02:40:13;5.53;;;4.33;;
10116;SDS011;5098;48.792;9.012;2022-12-20T02:42:39;6.90;;;4.22;;
10116;SDS011;5098;48.792;9.012;2022-12-20T02:45:05;5.32;;;4.78;;
10116;SDS011;5098;48.792;9.012;2022-12-20T02:50:11;5.15;;;4.40;;
10116;SDS011;5098;48.792;9.012;2022-12-20T02:52:38;5.57;;;3.70;;
10116;SDS011;5098;48.792;9.012;2022-12-20T02:55:05;5.90;;;3.83;;
10116;SDS011;5098;48.792;9.012;2022-12-20T02:57:42;4.82;;;4.05;;
10116;SDS011;5098;48.792;9.012;2022-12-20T03:00:11;4.97;;;4.25;;
10116;SDS011;5098;48.792;9.012;2022-12-20T03:02:38;6.50;;;3.85;;
10116;SDS011;5098;48.792;9.012;2022-12-20T03:05:24;4.72;;;3.45;;
10116;SDS011;5098;48.792;9.012;2022-12-20T03:07:50;4.73;;;4.23;;
10116;SDS011;5098;48.792;9.012;2022-12-20T03:10:17;4.55;;;3.53;;
10116;SDS011;5098;48.792;9.012;2022-12-20T03:12:43;6.40;;;4.50;;
10116;SDS011;5098;48.792;9.012;2022-12-20T03:15:10;3.67;;;3.33;;
10116;SDS011;5098;48.792;9.012;2022-12-20T03:17:36;7.65;;;3.97;;
10116;SDS011;5098;48.792;9.012;2022-12-20T03:20:03;3.67;;;3.10;;
10116;SDS011;5098;48.792;9.012;2022-12-20T03:22:30;5.35;;;4.10;;
10116;SDS011;5098;48.792;9.012;2022-12-20T03:24:56;4.27;;;3.80;;
10116;SDS011;5098;48.792;9.012;2022-12-20T03:27:23;3.75;;;3.42;;
10116;SDS011;5098;48.792;9.012;2022-12-20T03:29:50;3.50;;;3.20;;
10116;SDS011;5098;48.792;9.012;2022-12-20T03:32:16;5.75;;;4.30;;
10116;SDS011;5098;48.792;9.012;2022-12-20T03:34:42;5.60;;;3.95;;
10116;SDS011;5098;48.792;9.012;2022-12-20T03:37:08;5.80;;;3.95;;
10116;SDS011;5098;48.792;9.012;2022-12-20T03:39:34;5.80;;;4.55;;
10116;SDS011;5098;48.792;9.012;2022-12-20T03:42:00;5.22;;;4.00;;
10116;SDS011;5098;48.792;9.012;2022-12-20T03:44:26;5.68;;;4.75;;
10116;SDS011;5098;48.792;9.012;2022-12-20T03:46:52;5.57;;;4.65;;
10116;SDS011;5098;48.792;9.012;2022-12-20T03:49:18;6.85;;;4.60;;
10116;SDS011;5098;48.792;9.012;2022-12-20T03:51:44;4.77;;;4.27;;
10116;SDS011;5098;48.792;9.012;2022-12-20T03:54:10;6.40;;;4.80;;
10116;SDS011;5098;48.792;9.012;2022-12-20T03:56:36;5.73;;;4.23;;
10116;SDS011;5098;48.792;9.012;2022-12-20T03:59:02;7.20;;;4.03;;
10116;SDS011;5098;48.792;9.012;2022-12-20T04:01:29;5.45;;;4.20;;
10116;SDS011;5098;48.792;9.012;2022-12-20T04:03:55;6.32;;;4.72;;
10116;SDS011;5098;48.792;9.012;2022-12-20T04:06:22;4.03;;;3.53;;
10116;SDS011;5098;48.792;9.012;2022-12-20T04:08:48;4.05;;;3.65;;
10116;SDS011;5098;48.792;9.012;2022-12-20T04:11:14;4.80;;;4.10;;
10116;SDS011;5098;48.792;9.012;2022-12-20T04:13:41;4.38;;;3.95;;
10116;SDS011;5098;48.792;9.012;2022-12-20T04:16:07;6.90;;;4.28;;
10116;SDS011;5098;48.792;9.012;2022-12-20T04:18:33;5.18;;;4.10;;
10116;SDS011;5098;48.792;9.012;2022-12-20T04:20:59;4.57;;;4.00;;
10116;SDS011;5098;48.792;9.012;2022-12-20T04:23:25;4.55;;;4.13;;
10116;SDS011;5098;48.792;9.012;2022-12-20T04:25:52;4.93;;;4.33;;
10116;SDS011;5098;48.792;9.012;2022-12-20T04:28:18;5.93;;;3.55;;
10116;SDS011;5098;48.792;9.012;2022-12-20T04:30:44;6.28;;;4.30;;
10116;SDS011;5098;48.792;9.012;2022-12-20T04:33:10;4.20;;;3.60;;
10116;SDS011;5098;48.792;9.012;2022-12-20T04:35:36;6.88;;;5.18;;
10116;SDS011;5098;48.792;9.012;2022-12-20T04:38:02;6.10;;;4.72;;
10116;SDS011;5098;48.792;9.012;2022-12-20T04:40:28;6.85;;;4.50;;
10116;SDS011;5098;48.792;9.012;2022-12-20T04:42:54;4.70;;;4.10;;
10116;SDS011;5098;48.792;9.012;2022-12-20T04:45:20;5.28;;;4.38;;
10116;SDS011;5098;48.792;9.012;2022-12-20T04:47:46;5.60;;;4.85;;
10116;SDS011;5098;48.792;9.012;2022-12-20T04:50:12;6.30;;;4.53;;
10116;SDS011;5098;48.792;9.012;2022-12-20T04:52:38;5.55;;;4.20;;
10116;SDS011;5098;48.792;9.012;2022-12-20T04:55:23;5.65;;;4.50;;
10116;SDS011;5098;48.792;9.012;2022-12-20T04:57:49;4.60;;;4.00;;
10116;SDS011;5098;48.792;9.012;2022-12-20T05:00:15;6.20;;;4.23;;
10116;SDS011;5098;48.792;9.012;2022-12-20T05:02:42;6.38;;;4.45;;
10116;SDS011;5098;48.792;9.012;2022-12-20T05:05:08;6.10;;;4.30;;
10116;SDS011;5098;48.792;9.012;2022-12-20T05:07:34;3.77;;;3.37;;
10116;SDS011;5098;48.792;9.012;2022-12-20T05:10:00;5.93;;;4.18;;
10116;SDS011;5098;48.792;9.012;2022-12-20T05:12:26;4.70;;;4.20;;
10116;SDS011;5098;48.792;9.012;2022-12-20T05:14:52;6.05;;;5.45;;
10116;SDS011;5098;48.792;9.012;2022-12-20T05:17:18;6.03;;;4.70;;
10116;SDS011;5098;48.792;9.012;2022-12-20T05:19:44;6.27;;;4.90;;
10116;SDS011;5098;48.792;9.012;2022-12-20T05:22:10;6.05;;;4.75;;
10116;SDS011;5098;48.792;9.012;2022-12-20T05:24:54;4.97;;;4.47;;
10116;SDS011;5098;48.792;9.012;2022-12-20T05:27:39;4.47;;;4.07;;
10116;SDS011;5098;48.792;9.012;2022-12-20T05:30:05;4.50;;;4.03;;
10116;SDS011;5098;48.792;9.012;2022-12-20T05:32:32;5.13;;;4.63;;
10116;SDS011;5098;48.792;9.012;2022-12-20T05:34:58;5.97;;;4.20;;
10116;SDS011;5098;48.792;9.012;2022-12-20T05:37:24;5.37;;;4.20;;
10116;SDS011;5098;48.792;9.012;2022-12-20T05:39:50;5.53;;;4.80;;
10116;SDS011;5098;48.792;9.012;2022-12-20T05:42:17;7.40;;;3.77;;
10116;SDS011;5098;48.792;9.012;2022-12-20T05:44:43;3.60;;;3.28;;
10116;SDS011;5098;48.792;9.012;2022-12-20T05:47:09;4.67;;;3.70;;
10116;SDS011;5098;48.792;9.012;2022-12-20T05:49:35;5.50;;;4.30;;
10116;SDS011;5098;48.792;9.012;2022-12-20T05:52:01;5.18;;;3.67;;
10116;SDS011;5098;48.792;9.012;2022-12-20T05:54:27;4.40;;;3.50;;
10116;SDS011;5098;48.792;9.012;2022-12-20T05:56:53;5.35;;;3.67;;
10116;SDS011;5098;48.792;9.012;2022-12-20T05:59:19;5.25;;;4.00;;
10116;SDS011;5098;48.792;9.012;2022-12-20T06:01:45;5.15;;;3.88;;
10116;SDS011;5098;48.792;9.012;2022-12-20T06:04:11;4.80;;;4.32;;
10116;SDS011;5098;48.792;9.012;2022-12-20T06:06:37;4.70;;;3.50;;
10116;SDS011;5098;48.792;9.012;2022-12-20T06:09:03;5.40;;;3.85;;
10116;SDS011;5098;48.792;9.012;2022-12-20T06:11:29;3.50;;;3.20;;
10116;SDS011;5098;48.792;9.012;2022-12-20T06:13:55;4.60;;;3.45;;
10116;SDS011;5098;48.792;9.012;2022-12-20T06:16:22;4.13;;;3.63;;
10116;SDS011;5098;48.792;9.012;2022-12-20T06:18:49;5.15;;;4.10;;
10116;SDS011;5098;48.792;9.012;2022-12-20T06:21:15;3.60;;;3.30;;
10116;SDS011;5098;48.792;9.012;2022-12-20T06:23:41;8.37;;;4.00;;
10116;SDS011;5098;48.792;9.012;2022-12-20T06:26:08;4.53;;;3.72;;
10116;SDS011;5098;48.792;9.012;2022-12-20T06:28:34;4.17;;;3.43;;
10116;SDS011;5098;48.792;9.012;2022-12-20T06:31:06;3.83;;;3.40;;
10116;SDS011;5098;48.792;9.012;2022-12-20T06:33:33;6.00;;;3.50;;
10116;SDS011;5098;48.792;9.012;2022-12-20T06:35:59;3.13;;;2.75;;
10116;SDS011;5098;48.792;9.012;2022-12-20T06:38:25;5.38;;;3.90;;
10116;SDS011;5098;48.792;9.012;2022-12-20T06:40:51;5.70;;;3.63;;
10116;SDS011;5098;48.792;9.012;2022-12-20T06:43:17;6.10;;;4.33;;
10116;SDS011;5098;48.792;9.012;2022-12-20T06:45:43;6.85;;;4.00;;
10116;SDS011;5098;48.792;9.012;2022-12-20T06:48:09;3.63;;;3.03;;
10116;SDS011;5098;48.792;9.012;2022-12-20T06:50:38;6.30;;;4.50;;
10116;SDS011;5098;48.792;9.012;2022-12-20T06:53:05;4.82;;;3.85;;
10116;SDS011;5098;48.792;9.012;2022-12-20T06:55:31;4.95;;;3.75;;
10116;SDS011;5098;48.792;9.012;2022-12-20T06:57:57;5.57;;;4.27;;
10116;SDS011;5098;48.792;9.012;2022-12-20T07:00:23;5.55;;;4.30;;
10116;SDS011;5098;48.792;9.012;2022-12-20T07:02:49;4.25;;;3.90;;
10116;SDS011;5098;48.792;9.012;2022-12-20T07:05:15;6.15;;;4.45;;
10116;SDS011;5098;48.792;9.012;2022-12-20T07:07:41;5.47;;;4.53;;
10116;SDS011;5098;48.792;9.012;2022-12-20T07:10:08;5.73;;;4.93;;
10116;SDS011;5098;48.792;9.012;2022-12-20T07:12:35;5.38;;;4.30;;
10116;SDS011;5098;48.792;9.012;2022-12-20T07:15:01;5.83;;;4.53;;
10116;SDS011;5098;48.792;9.012;2022-12-20T07:17:27;6.00;;;4.00;;
10116;SDS011;5098;48.792;9.012;2022-12-20T07:19:53;4.90;;;4.10;;
10116;SDS011;5098;48.792;9.012;2022-12-20T07:22:19;6.20;;;4.18;;
10116;SDS011;5098;48.792;9.012;2022-12-20T07:24:45;7.28;;;5.15;;
10116;SDS011;5098;48.792;9.012;2022-12-20T07:27:11;4.63;;;4.23;;
10116;SDS011;5098;48.792;9.012;2022-12-20T07:29:38;8.10;;;4.50;;
10116;SDS011;5098;48.792;9.012;2022-12-20T07:32:06;6.90;;;4.30;;
10116;SDS011;5098;48.792;9.012;2022-12-20T07:34:32;5.70;;;4.50;;
10116;SDS011;5098;48.792;9.012;2022-12-20T07:36:58;4.18;;;3.78;;
10116;SDS011;5098;48.792;9.012;2022-12-20T07:39:24;4.37;;;3.97;;
10116;SDS011;5098;48.792;9.012;2022-12-20T07:41:54;4.97;;;3.83;;
10116;SDS011;5098;48.792;9.012;2022-12-20T07:44:20;8.20;;;4.00;;
10116;SDS011;5098;48.792;9.012;2022-12-20T07:46:47;3.95;;;3.55;;
10116;SDS011;5098;48.792;9.012;2022-12-20T07:49:13;4.73;;;3.80;;
10116;SDS011;5098;48.792;9.012;2022-12-20T07:51:40;4.23;;;3.83;;
10116;SDS011;5098;48.792;9.012;2022-12-20T07:54:11;5.37;;;4.83;;
10116;SDS011;5098;48.792;9.012;2022-12-20T07:56:40;4.97;;;4.33;;
10116;SDS011;5098;48.792;9.012;2022-12-20T07:59:08;6.87;;;5.30;;
10116;SDS011;5098;48.792;9.012;2022-12-20T08:01:35;5.97;;;4.23;;
10116;SDS011;5098;48.792;9.012;2022-12-20T08:04:03;4.97;;;4.43;;
10116;SDS011;5098;48.792;9.012;2022-12-20T08:06:30;5.90;;;4.30;;
10116;SDS011;5098;48.792;9.012;2022-12-20T08:08:57;8.40;;;5.47;;
10116;SDS011;5098;48.792;9.012;2022-12-20T08:11:25;6.20;;;5.20;;
10116;SDS011;5098;48.792;9.012;2022-12-20T08:13:52;7.10;;;5.00;;
10116;SDS011;5098;48.792;9.012;2022-12-20T08:16:18;5.30;;;4.20;;
10116;SDS011;5098;48.792;9.012;2022-12-20T08:18:44;5.33;;;4.57;;
10116;SDS011;5098;48.792;9.012;2022-12-20T08:21:10;5.83;;;4.73;;
10116;SDS011;5098;48.792;9.012;2022-12-20T08:23:38;5.37;;;4.20;;
10116;SDS011;5098;48.792;9.012;2022-12-20T08:26:04;4.10;;;3.70;;
10116;SDS011;5098;48.792;9.012;2022-12-20T08:28:31;5.50;;;4.50;;
10116;SDS011;5098;48.792;9.012;2022-12-20T08:31:01;4.67;;;3.40;;
10116;SDS011;5098;48.792;9.012;2022-12-20T08:33:27;4.30;;;3.90;;
10116;SDS011;5098;48.792;9.012;2022-12-20T08:36:00;5.87;;;3.63;;
10116;SDS011;5098;48.792;9.012;2022-12-20T08:38:30;3.50;;;3.10;;
10116;SDS011;5098;48.792;9.012;2022-12-20T08:41:29;4.03;;;3.63;;
10116;SDS011;5098;48.792;9.012;2022-12-20T08:43:49;5.13;;;3.47;;
10116;SDS011;5098;48.792;9.012;2022-12-20T08:46:15;4.13;;;3.70;;
10116;SDS011;5098;48.792;9.012;2022-12-20T08:48:41;4.87;;;4.07;;
10116;SDS011;5098;48.792;9.012;2022-12-20T08:51:07;4.60;;;3.83;;
10116;SDS011;5098;48.792;9.012;2022-12-20T08:53:34;5.57;;;3.93;;
10116;SDS011;5098;48.792;9.012;2022-12-20T08:58:30;5.20;;;3.40;;
10116;SDS011;5098;48.792;9.012;2022-12-20T09:00:59;5.00;;;4.00;;
10116;SDS011;5098;48.792;9.012;2022-12-20T09:03:26;6.53;;;3.90;;
10116;SDS011;5098;48.792;9.012;2022-12-20T09:05:52;6.70;;;4.07;;
10116;SDS011;5098;48.792;9.012;2022-12-20T09:08:19;4.07;;;3.67;;
10116;SDS011;5098;48.792;9.012;2022-12-20T09:10:45;4.50;;;3.70;;
10116;SDS011;5098;48.792;9.012;2022-12-20T09:13:11;3.93;;;3.40;;
10116;SDS011;5098;48.792;9.012;2022-12-20T09:15:37;3.57;;;3.20;;
10116;SDS011;5098;48.792;9.012;2022-12-20T09:18:03;3.43;;;3.13;;
10116;SDS011;5098;48.792;9.012;2022-12-20T09:20:30;6.60;;;3.30;;
10116;SDS011;5098;48.792;9.012;2022-12-20T09:22:57;4.30;;;3.30;;
10116;SDS011;5098;48.792;9.012;2022-12-20T09:25:24;4.30;;;3.30;;
10116;SDS011;5098;48.792;9.012;2022-12-20T09:27:50;3.90;;;3.13;;
10116;SDS011;5098;48.792;9.012;2022-12-20T09:30:16;5.97;;;3.50;;
10116;SDS011;5098;48.792;9.012;2022-12-20T09:32:42;3.93;;;2.20;;
10116;SDS011;5098;48.792;9.012;2022-12-20T09:35:08;4.70;;;3.33;;
10116;SDS011;5098;48.792;9.012;2022-12-20T09:37:34;4.63;;;4.00;;
10116;SDS011;5098;48.792;9.012;2022-12-20T09:40:00;4.10;;;3.03;;
10116;SDS011;5098;48.792;9.012;2022-12-20T09:42:26;4.70;;;3.50;;
10116;SDS011;5098;48.792;9.012;2022-12-20T09:45:01;6.63;;;3.90;;
10116;SDS011;5098;48.792;9.012;2022-12-20T09:47:28;5.43;;;3.43;;
10116;SDS011;5098;48.792;9.012;2022-12-20T09:49:55;3.10;;;2.20;;
10116;SDS011;5098;48.792;9.012;2022-12-20T09:52:38;5.80;;;3.70;;
10116;SDS011;5098;48.792;9.012;2022-12-20T10:00:13;4.40;;;3.10;;
10116;SDS011;5098;48.792;9.012;2022-12-20T10:02:40;3.40;;;3.10;;
10116;SDS011;5098;48.792;9.012;2022-12-20T10:05:16;4.30;;;3.10;;
10116;SDS011;5098;48.792;9.012;2022-12-20T10:07:54;5.60;;;3.30;;
10116;SDS011;5098;48.792;9.012;2022-12-20T10:15:21;4.10;;;3.10;;
10116;SDS011;5098;48.792;9.012;2022-12-20T10:25:32;4.10;;;3.23;;
10116;SDS011;5098;48.792;9.012;2022-12-20T10:28:04;2.57;;;2.37;;
10116;SDS011;5098;48.792;9.012;2022-12-20T10:30:35;5.47;;;2.67;;
10116;SDS011;5098;48.792;9.012;2022-12-20T10:33:01;3.83;;;3.43;;
10116;SDS011;5098;48.792;9.012;2022-12-20T10:37:57;2.63;;;2.40;;
10116;SDS011;5098;48.792;9.012;2022-12-20T10:40:31;3.20;;;2.90;;
10116;SDS011;5098;48.792;9.012;2022-12-20T10:42:58;3.43;;;2.17;;
10116;SDS011;5098;48.792;9.012;2022-12-20T10:45:31;1.43;;;1.30;;
10116;SDS011;5098;48.792;9.012;2022-12-20T10:47:59;5.77;;;2.73;;
10116;SDS011;5098;48.792;9.012;2022-12-20T10:50:25;4.00;;;3.13;;
10116;SDS011;5098;48.792;9.012;2022-12-20T10:53:02;3.40;;;3.10;;
10116;SDS011;5098;48.792;9.012;2022-12-20T10:55:33;4.60;;;3.20;;
10116;SDS011;5098;48.792;9.012;2022-12-20T10:58:04;2.33;;;2.10;;
10116;SDS011;5098;48.792;9.012;2022-12-20T11:00:30;4.27;;;3.03;;
10116;SDS011;5098;48.792;9.012;2022-12-20T11:03:11;4.60;;;2.87;;
10116;SDS011;5098;48.792;9.012;2022-12-20T11:05:37;3.60;;;2.30;;
10116;SDS011;5098;48.792;9.012;2022-12-20T11:08:16;6.37;;;3.03;;
10116;SDS011;5098;48.792;9.012;2022-12-20T11:10:43;4.47;;;2.83;;
10116;SDS011;5098;48.792;9.012;2022-12-20T11:13:23;4.43;;;3.00;;
10116;SDS011;5098;48.792;9.012;2022-12-20T11:15:50;3.30;;;3.00;;
10116;SDS011;5098;48.792;9.012;2022-12-20T11:18:37;5.30;;;2.87;;
10116;SDS011;5098;48.792;9.012;2022-12-20T11:41:35;3.57;;;2.90;;
10116;SDS011;5098;48.792;9.012;2022-12-20T11:46:52;3.80;;;3.27;;
10116;SDS011;5098;48.792;9.012;2022-12-20T11:49:32;4.97;;;3.10;;
10116;SDS011;5098;48.792;9.012;2022-12-20T11:54:28;3.93;;;2.83;;
10116;SDS011;5098;48.792;9.012;2022-12-20T11:56:57;4.20;;;3.30;;
10116;SDS011;5098;48.792;9.012;2022-12-20T12:04:29;4.30;;;3.00;;
10116;SDS011;5098;48.792;9.012;2022-12-20T12:07:02;7.00;;;2.63;;
10116;SDS011;5098;48.792;9.012;2022-12-20T12:09:35;4.30;;;3.20;;
10116;SDS011;5098;48.792;9.012;2022-12-20T12:17:23;6.00;;;3.73;;
10116;SDS011;5098;48.792;9.012;2022-12-20T12:19:51;4.80;;;3.73;;
10116;SDS011;5098;48.792;9.012;2022-12-20T12:22:21;5.83;;;3.83;;
10116;SDS011;5098;48.792;9.012;2022-12-20T12:24:52;3.97;;;3.10;;
10116;SDS011;5098;48.792;9.012;2022-12-20T12:27:24;3.80;;;2.80;;
10116;SDS011;5098;48.792;9.012;2022-12-20T12:29:51;5.87;;;3.10;;
10116;SDS011;5098;48.792;9.012;2022-12-20T12:32:31;3.83;;;2.70;;
10116;SDS011;5098;48.792;9.012;2022-12-20T12:47:54;2.90;;;2.70;;
10116;SDS011;5098;48.792;9.012;2022-12-20T12:50:24;4.13;;;3.10;;
10116;SDS011;5098;48.792;9.012;2022-12-20T12:52:51;4.17;;;2.90;;
10116;SDS011;5098;48.792;9.012;2022-12-20T13:03:14;4.83;;;2.70;;
10116;SDS011;5098;48.792;9.012;2022-12-20T13:05:41;3.87;;;2.83;;
10116;SDS011;5098;48.792;9.012;2022-12-20T13:08:16;3.30;;;2.77;;
10116;SDS011;5098;48.792;9.012;2022-12-20T13:13:12;4.97;;;3.27;;
10116;SDS011;5098;48.792;9.012;2022-12-20T13:20:34;5.00;;;2.70;;
10116;SDS011;5098;48.792;9.012;2022-12-20T13:30:43;4.50;;;2.43;;
10116;SDS011;5098;48.792;9.012;2022-12-20T13:35:58;3.57;;;3.10;;
10116;SDS011;5098;48.792;9.012;2022-12-20T13:43:48;4.40;;;2.53;;
10116;SDS011;5098;48.792;9.012;2022-12-20T13:46:20;4.30;;;2.53;;
10116;SDS011;5098;48.792;9.012;2022-12-20T13:48:51;2.93;;;2.63;;
10116;SDS011;5098;48.792;9.012;2022-12-20T13:51:19;2.63;;;2.43;;
10116;SDS011;5098;48.792;9.012;2022-12-20T13:56:20;4.70;;;3.13;;
10116;SDS011;5098;48.792;9.012;2022-12-20T13:58:54;3.80;;;3.40;;
10116;SDS011;5098;48.792;9.012;2022-12-20T14:01:21;5.17;;;3.23;;
10116;SDS011;5098;48.792;9.012;2022-12-20T14:03:48;5.53;;;3.17;;
10116;SDS011;5098;48.792;9.012;2022-12-20T14:06:14;11.30;;;6.23;;
10116;SDS011;5098;48.792;9.012;2022-12-20T14:08:42;11.53;;;4.90;;
10116;SDS011;5098;48.792;9.012;2022-12-20T14:11:13;8.63;;;4.20;;
10116;SDS011;5098;48.792;9.012;2022-12-20T14:13:40;5.13;;;3.03;;
10116;SDS011;5098;48.792;9.012;2022-12-20T14:16:11;6.20;;;3.40;;
10116;SDS011;5098;48.792;9.012;2022-12-20T14:18:39;7.20;;;3.50;;
10116;SDS011;5098;48.792;9.012;2022-12-20T14:21:05;5.13;;;3.13;;
10116;SDS011;5098;48.792;9.012;2022-12-20T14:26:03;7.13;;;3.57;;
10116;SDS011;5098;48.792;9.012;2022-12-20T14:28:31;7.33;;;3.43;;
10116;SDS011;5098;48.792;9.012;2022-12-20T14:31:00;5.80;;;3.80;;
10116;SDS011;5098;48.792;9.012;2022-12-20T14:33:37;7.50;;;5.00;;
10116;SDS011;5098;48.792;9.012;2022-12-20T14:36:22;4.67;;;4.00;;
10116;SDS011;5098;48.792;9.012;2022-12-20T14:38:49;3.90;;;2.70;;
10116;SDS011;5098;48.792;9.012;2022-12-20T14:41:31;5.00;;;2.60;;
10116;SDS011;5098;48.792;9.012;2022-12-20T14:46:31;3.50;;;2.70;;
10116;SDS011;5098;48.792;9.012;2022-12-20T14:49:17;5.17;;;3.20;;
10116;SDS011;5098;48.792;9.012;2022-12-20T14:51:46;4.23;;;3.37;;
10116;SDS011;5098;48.792;9.012;2022-12-20T14:54:19;4.80;;;2.87;;
10116;SDS011;5098;48.792;9.012;2022-12-20T14:56:47;4.83;;;3.23;;
10116;SDS011;5098;48.792;9.012;2022-12-20T14:59:15;5.60;;;2.90;;
10116;SDS011;5098;48.792;9.012;2022-12-20T15:01:42;4.20;;;2.70;;
10116;SDS011;5098;48.792;9.012;2022-12-20T15:04:21;2.80;;;2.60;;
10116;SDS011;5098;48.792;9.012;2022-12-20T15:06:47;6.23;;;3.50;;
10116;SDS011;5098;48.792;9.012;2022-12-20T15:09:14;3.90;;;3.50;;
10116;SDS011;5098;48.792;9.012;2022-12-20T15:11:41;3.63;;;2.90;;
10116;SDS011;5098;48.792;9.012;2022-12-20T15:14:12;4.57;;;2.77;;
10116;SDS011;5098;48.792;9.012;2022-12-20T15:16:45;4.63;;;3.07;;
10116;SDS011;5098;48.792;9.012;2022-12-20T15:19:12;3.70;;;3.13;;
10116;SDS011;5098;48.792;9.012;2022-12-20T15:21:41;4.10;;;3.53;;
10116;SDS011;5098;48.792;9.012;2022-12-20T15:24:09;7.23;;;3.00;;
10116;SDS011;5098;48.792;9.012;2022-12-20T15:26:36;3.87;;;3.10;;
10116;SDS011;5098;48.792;9.012;2022-12-20T15:29:02;5.50;;;3.27;;
10116;SDS011;5098;48.792;9.012;2022-12-20T15:31:29;4.63;;;3.03;;
10116;SDS011;5098;48.792;9.012;2022-12-20T15:33:55;5.20;;;2.80;;
10116;SDS011;5098;48.792;9.012;2022-12-20T15:36:26;4.13;;;3.10;;
10116;SDS011;5098;48.792;9.012;2022-12-20T15:38:53;3.63;;;3.27;;
10116;SDS011;5098;48.792;9.012;2022-12-20T15:43:49;3.30;;;2.30;;
10116;SDS011;5098;48.792;9.012;2022-12-20T15:46:16;5.47;;;3.10;;
10116;SDS011;5098;48.792;9.012;2022-12-20T15:48:42;3.93;;;2.70;;
10116;SDS011;5098;48.792;9.012;2022-12-20T15:51:42;4.03;;;3.30;;
10116;SDS011;5098;48.792;9.012;2022-12-20T15:54:02;7.37;;;2.90;;
10116;SDS011;5098;48.792;9.012;2022-12-20T15:56:28;2.70;;;2.50;;
10116;SDS011;5098;48.792;9.012;2022-12-20T15:58:55;2.80;;;2.37;;
10116;SDS011;5098;48.792;9.012;2022-12-20T16:01:26;5.63;;;2.53;;
10116;SDS011;5098;48.792;9.012;2022-12-20T16:03:52;3.60;;;2.70;;
10116;SDS011;5098;48.792;9.012;2022-12-20T16:06:18;2.13;;;1.93;;
10116;SDS011;5098;48.792;9.012;2022-12-20T16:08:44;3.53;;;2.20;;
10116;SDS011;5098;48.792;9.012;2022-12-20T16:11:18;3.07;;;2.23;;
10116;SDS011;5098;48.792;9.012;2022-12-20T16:13:44;7.27;;;2.80;;
10116;SDS011;5098;48.792;9.012;2022-12-20T16:16:17;3.60;;;2.60;;
10116;SDS011;5098;48.792;9.012;2022-12-20T16:18:43;3.33;;;2.40;;
10116;SDS011;5098;48.792;9.012;2022-12-20T16:21:16;2.97;;;2.43;;
10116;SDS011;5098;48.792;9.012;2022-12-20T16:23:43;2.60;;;2.40;;
10116;SDS011;5098;48.792;9.012;2022-12-20T16:26:11;4.27;;;2.50;;
10116;SDS011;5098;48.792;9.012;2022-12-20T16:28:37;3.23;;;2.40;;
10116;SDS011;5098;48.792;9.012;2022-12-20T16:33:48;3.60;;;2.50;;
10116;SDS011;5098;48.792;9.012;2022-12-20T16:36:14;3.83;;;2.10;;
10116;SDS011;5098;48.792;9.012;2022-12-20T16:38:41;3.00;;;2.57;;
10116;SDS011;5098;48.792;9.012;2022-12-20T16:41:14;3.00;;;2.50;;
10116;SDS011;5098;48.792;9.012;2022-12-20T16:43:41;4.47;;;2.50;;
10116;SDS011;5098;48.792;9.012;2022-12-20T16:46:13;5.43;;;2.40;;
10116;SDS011;5098;48.792;9.012;2022-12-20T16:48:40;2.50;;;2.30;;
10116;SDS011;5098;48.792;9.012;2022-12-20T16:51:23;4.00;;;2.10;;
10116;SDS011;5098;48.792;9.012;2022-12-20T16:53:53;3.00;;;2.47;;
10116;SDS011;5098;48.792;9.012;2022-12-20T16:56:20;4.77;;;2.87;;
10116;SDS011;5098;48.792;9.012;2022-12-20T16:58:46;4.90;;;3.57;;
10116;SDS011;5098;48.792;9.012;2022-12-20T17:01:18;6.30;;;3.87;;
10116;SDS011;5098;48.792;9.012;2022-12-20T17:03:45;5.03;;;3.27;;
10116;SDS011;5098;48.792;9.012;2022-12-20T17:06:12;3.00;;;2.70;;
10116;SDS011;5098;48.792;9.012;2022-12-20T17:08:38;3.03;;;2.73;;
10116;SDS011;5098;48.792;9.012;2022-12-20T17:13:40;4.23;;;2.50;;
10116;SDS011;5098;48.792;9.012;2022-12-20T17:16:07;4.00;;;2.90;;
10116;SDS011;5098;48.792;9.012;2022-12-20T17:18:34;4.07;;;3.00;;
10116;SDS011;5098;48.792;9.012;2022-12-20T17:21:00;2.97;;;2.67;;
10116;SDS011;5098;48.792;9.012;2022-12-20T17:23:26;3.17;;;2.80;;
10116;SDS011;5098;48.792;9.012;2022-12-20T17:25:54;3.23;;;2.40;;